Sunday, November 19, 2017, 8:52 PM EST
Back to Local

KWAL, Wallops Flight Fac Airport

Location: Wallops Island, VA, United States Lat: 37.933
Local Time: 8:52 PM EST ( 1:52 GMT) Lon: -75.467
Time Zone: US/Eastern Elev: 39 ft

Show me the last for .
Show Decoded

2017-11-19 19:54 METAR KWAL 200054Z AUTO 32010G18KT 10SM CLR 07/M03 A2989 RMK AO2 SLP119
                 T00721028 =
2017-11-19 18:54 METAR KWAL 192354Z AUTO 31009KT 10SM CLR 07/M02 A2987 RMK AO2 PK WND 31027/2255
                 SLP111 T00721022 10122 20072 52042 =
2017-11-19 17:54 METAR KWAL 192254Z AUTO 32016G26KT 10SM CLR 08/M02 A2983 RMK AO2 PK WND
                 33026/2249 SLP098 T00831017 =
2017-11-19 16:54 METAR KWAL 192154Z AUTO 31013G19KT 10SM CLR 09/M02 A2978 RMK AO2 PK WND
                 31026/2113 SLP081 T00891017 =
2017-11-19 15:54 METAR KWAL 192054Z AUTO 31014G25KT 10SM CLR 11/M01 A2974 RMK AO2 PK WND
                 30029/2034 SLP069 T01061011 53021 =
2017-11-19 14:54 METAR KWAL 191954Z AUTO 31016G28KT 10SM CLR 12/00 A2971 RMK AO2 PK WND
                 30028/1857 SLP056 T01220000 =
2017-11-19 13:54 METAR KWAL 191854Z AUTO 31022G29KT 10SM CLR 12/00 A2969 RMK AO2 PK WND
                 31031/1813 SLP052 T01220000 =
2017-11-19 12:54 METAR KWAL 191754Z AUTO 31019G28KT 10SM CLR 12/02 A2968 RMK AO2 PK WND
                 32034/1712 SLP048 60000 T01220017 10156 20117 51011 =
2017-11-19 11:54 METAR KWAL 191654Z AUTO 31014G28KT 10SM CLR 12/02 A2968 RMK AO2 PK WND
                 31033/1618 SLP046 T01220017 =
2017-11-19 10:54 METAR KWAL 191554Z AUTO 30020G31KT 10SM CLR 12/01 A2967 RMK AO2 PK WND
                 29035/1522 SLP045 T01220011 =
2017-11-19 09:54 METAR KWAL 191454Z AUTO 31017G24KT 10SM CLR 12/03 A2965 RMK AO2 PK WND
                 31038/1430 SLP037 60000 T01220028 51061 =
2017-11-19 08:54 METAR KWAL 191354Z AUTO 31018G36KT 10SM CLR 12/03 A2961 RMK AO2 PK WND
                 31036/1350 RAE1257 SLP024 P0000 T01220033 =
2017-11-19 07:54 METAR KWAL 191254Z AUTO 30021G33KT 10SM -RA FEW024 SCT042 OVC050 14/08 A2954 RMK
                 AO2 PK WND 30033/1246 RAB40 SLP999 P0000 T01440078 =
2017-11-19 06:54 METAR KWAL 191154Z AUTO 24013G26KT 10SM SCT065 BKN080 OVC100 16/14 A2947 RMK AO2
                 PK WND 21028/1134 RAE50 SLP976 P0003 60007 70007 T01560139 10167 20156 53009 =
2017-11-19 05:54 METAR KWAL 191054Z AUTO 22016G22KT 7SM RA SCT080 OVC090 16/14 A2945 RMK AO2 PK
                 WND 21032/1028 SLP969 P0003 T01560139 =
2017-11-19 04:54 METAR KWAL 190954Z AUTO 22013G22KT 10SM -RA FEW037 BKN049 OVC080 16/13 A2944 RMK
                 AO2 RAB29 SLP967 P0001 T01610133 =
2017-11-19 03:54 METAR KWAL 190854Z AUTO 20015KT 10SM FEW046 SCT055 OVC075 16/13 A2944 RMK AO2 PK
                 WND 20026/0813 SLP967 T01610128 58024 =
2017-11-19 02:54 METAR KWAL 190754Z AUTO 19021G30KT 10SM BKN060 16/13 A2947 RMK AO2 PK WND
                 20030/0752 SLP975 T01560128 =
2017-11-19 01:54 METAR KWAL 190654Z AUTO 20020G28KT 10SM CLR 17/13 A2950 RMK AO2 PK WND
                 22028/0648 SLP986 T01670128 =
2017-11-19 00:54 METAR KWAL 190554Z AUTO 20020G27KT 10SM CLR 16/13 A2951 RMK AO2 PK WND
                 20028/0542 SLP991 T01560133 10156 20144 58038 =
2017-11-18 23:54 METAR KWAL 190454Z AUTO 19017G24KT 10SM CLR 15/13 A2956 RMK AO2 PK WND
                 21032/0406 SLP007 T01500133 401560000 =
2017-11-18 22:54 METAR KWAL 190354Z AUTO 20023G28KT 10SM FEW060 16/13 A2960 RMK AO2 PK WND
                 20029/0317 SLP019 T01560128 =
2017-11-18 21:54 METAR KWAL 190254Z AUTO 20018KT 10SM CLR 15/12 A2963 RMK AO2 PK WND 20032/0244
                 SLP029 T01500117 56017 =
2017-11-18 20:54 METAR KWAL 190154Z AUTO 20019KT 10SM CLR 15/11 A2964 RMK AO2 PK WND 19030/0131
                 SLP033 T01500111 =

Support USWX by starting your Amazon purchase here.